sensor_id;sensor_type;location;lat;lon;timestamp;P1;durP1;ratioP1;P2;durP2;ratioP2
52438;SDS011;38359;53.150;6.504;2023-08-06T00:00:22;17.45;;;12.00;;
52438;SDS011;38359;53.150;6.504;2023-08-06T00:10:48;25.23;;;15.15;;
52438;SDS011;38359;53.150;6.504;2023-08-06T00:21:14;25.10;;;13.73;;
52438;SDS011;38359;53.150;6.504;2023-08-06T00:31:39;27.13;;;12.43;;
52438;SDS011;38359;53.150;6.504;2023-08-06T00:42:05;26.20;;;11.35;;
52438;SDS011;38359;53.150;6.504;2023-08-06T00:52:31;21.75;;;12.15;;
52438;SDS011;38359;53.150;6.504;2023-08-06T01:02:57;20.38;;;11.57;;
52438;SDS011;38359;53.150;6.504;2023-08-06T01:13:41;16.73;;;11.77;;
52438;SDS011;38359;53.150;6.504;2023-08-06T01:24:23;20.52;;;12.98;;
52438;SDS011;38359;53.150;6.504;2023-08-06T01:34:55;29.13;;;15.27;;
52438;SDS011;38359;53.150;6.504;2023-08-06T01:45:21;28.35;;;16.95;;
52438;SDS011;38359;53.150;6.504;2023-08-06T01:55:47;28.02;;;17.45;;
52438;SDS011;38359;53.150;6.504;2023-08-06T02:06:16;31.85;;;19.75;;
52438;SDS011;38359;53.150;6.504;2023-08-06T02:16:48;30.63;;;19.33;;
52438;SDS011;38359;53.150;6.504;2023-08-06T02:27:21;31.55;;;19.25;;
52438;SDS011;38359;53.150;6.504;2023-08-06T02:37:53;35.67;;;21.90;;
52438;SDS011;38359;53.150;6.504;2023-08-06T02:48:19;33.72;;;19.83;;
52438;SDS011;38359;53.150;6.504;2023-08-06T02:58:44;30.77;;;19.92;;
52438;SDS011;38359;53.150;6.504;2023-08-06T03:09:10;37.17;;;21.73;;
52438;SDS011;38359;53.150;6.504;2023-08-06T03:19:43;34.95;;;19.35;;
52438;SDS011;38359;53.150;6.504;2023-08-06T03:30:09;33.15;;;19.08;;
52438;SDS011;38359;53.150;6.504;2023-08-06T03:40:35;31.27;;;20.45;;
52438;SDS011;38359;53.150;6.504;2023-08-06T03:51:01;31.80;;;18.83;;
52438;SDS011;38359;53.150;6.504;2023-08-06T04:01:33;29.42;;;18.80;;
52438;SDS011;38359;53.150;6.504;2023-08-06T04:12:05;36.17;;;20.23;;
52438;SDS011;38359;53.150;6.504;2023-08-06T04:22:31;30.67;;;17.75;;
52438;SDS011;38359;53.150;6.504;2023-08-06T04:32:57;26.85;;;15.93;;
52438;SDS011;38359;53.150;6.504;2023-08-06T04:43:23;26.10;;;15.90;;
52438;SDS011;38359;53.150;6.504;2023-08-06T04:53:49;23.10;;;15.70;;
52438;SDS011;38359;53.150;6.504;2023-08-06T05:04:15;26.25;;;14.98;;
52438;SDS011;38359;53.150;6.504;2023-08-06T05:14:47;20.27;;;14.15;;
52438;SDS011;38359;53.150;6.504;2023-08-06T05:25:13;20.70;;;15.07;;
52438;SDS011;38359;53.150;6.504;2023-08-06T05:35:40;25.05;;;14.25;;
52438;SDS011;38359;53.150;6.504;2023-08-06T05:46:07;22.70;;;13.70;;
52438;SDS011;38359;53.150;6.504;2023-08-06T05:56:33;27.85;;;14.93;;
52438;SDS011;38359;53.150;6.504;2023-08-06T06:06:58;27.65;;;15.70;;
52438;SDS011;38359;53.150;6.504;2023-08-06T06:17:31;21.90;;;14.90;;
52438;SDS011;38359;53.150;6.504;2023-08-06T06:27:57;23.77;;;15.25;;
52438;SDS011;38359;53.150;6.504;2023-08-06T06:38:24;20.30;;;13.90;;
52438;SDS011;38359;53.150;6.504;2023-08-06T06:48:51;13.70;;;10.95;;
52438;SDS011;38359;53.150;6.504;2023-08-06T06:59:17;16.35;;;11.30;;
52438;SDS011;38359;53.150;6.504;2023-08-06T07:10:01;14.63;;;10.13;;
52438;SDS011;38359;53.150;6.504;2023-08-06T07:21:07;14.00;;;8.68;;
52438;SDS011;38359;53.150;6.504;2023-08-06T07:31:45;14.25;;;8.68;;
52438;SDS011;38359;53.150;6.504;2023-08-06T07:42:33;13.18;;;7.90;;
52438;SDS011;38359;53.150;6.504;2023-08-06T07:52:59;11.98;;;8.30;;
52438;SDS011;38359;53.150;6.504;2023-08-06T08:03:25;11.00;;;7.68;;
52438;SDS011;38359;53.150;6.504;2023-08-06T08:13:56;11.82;;;6.28;;
52438;SDS011;38359;53.150;6.504;2023-08-06T08:24:22;34.25;;;6.25;;
52438;SDS011;38359;53.150;6.504;2023-08-06T08:34:51;7.15;;;4.47;;
52438;SDS011;38359;53.150;6.504;2023-08-06T08:45:17;8.98;;;4.05;;
52438;SDS011;38359;53.150;6.504;2023-08-06T08:55:51;12.82;;;3.15;;
52438;SDS011;38359;53.150;6.504;2023-08-06T09:06:25;6.15;;;2.60;;
52438;SDS011;38359;53.150;6.504;2023-08-06T09:16:52;9.68;;;2.13;;
52438;SDS011;38359;53.150;6.504;2023-08-06T09:27:19;9.52;;;2.13;;
52438;SDS011;38359;53.150;6.504;2023-08-06T09:37:48;7.47;;;2.10;;
52438;SDS011;38359;53.150;6.504;2023-08-06T09:48:14;8.95;;;2.40;;
52438;SDS011;38359;53.150;6.504;2023-08-06T09:58:41;5.15;;;2.42;;
52438;SDS011;38359;53.150;6.504;2023-08-06T10:09:08;3.58;;;2.08;;
52438;SDS011;38359;53.150;6.504;2023-08-06T10:19:41;3.38;;;1.88;;
52438;SDS011;38359;53.150;6.504;2023-08-06T10:51:23;4.65;;;1.55;;
52438;SDS011;38359;53.150;6.504;2023-08-06T11:01:52;5.80;;;1.95;;
52438;SDS011;38359;53.150;6.504;2023-08-06T11:12:32;3.00;;;2.08;;
52438;SDS011;38359;53.150;6.504;2023-08-06T11:22:58;2.10;;;1.42;;
52438;SDS011;38359;53.150;6.504;2023-08-06T11:33:24;4.63;;;2.10;;
52438;SDS011;38359;53.150;6.504;2023-08-06T11:43:51;2.33;;;1.65;;
52438;SDS011;38359;53.150;6.504;2023-08-06T11:54:29;7.40;;;1.90;;
52438;SDS011;38359;53.150;6.504;2023-08-06T12:05:10;2.47;;;1.55;;
52438;SDS011;38359;53.150;6.504;2023-08-06T12:15:50;4.45;;;1.92;;
52438;SDS011;38359;53.150;6.504;2023-08-06T12:26:18;6.78;;;2.08;;
52438;SDS011;38359;53.150;6.504;2023-08-06T12:36:44;3.10;;;1.88;;
52438;SDS011;38359;53.150;6.504;2023-08-06T12:47:10;12.20;;;2.05;;
52438;SDS011;38359;53.150;6.504;2023-08-06T12:57:35;4.22;;;1.98;;
52438;SDS011;38359;53.150;6.504;2023-08-06T13:08:15;2.55;;;1.67;;
52438;SDS011;38359;53.150;6.504;2023-08-06T13:18:42;4.07;;;1.90;;
52438;SDS011;38359;53.150;6.504;2023-08-06T13:29:07;4.40;;;1.50;;
52438;SDS011;38359;53.150;6.504;2023-08-06T13:39:33;3.55;;;1.70;;
52438;SDS011;38359;53.150;6.504;2023-08-06T13:49:59;2.97;;;1.50;;
52438;SDS011;38359;53.150;6.504;2023-08-06T14:00:25;7.05;;;1.75;;
52438;SDS011;38359;53.150;6.504;2023-08-06T14:10:57;5.05;;;1.33;;
52438;SDS011;38359;53.150;6.504;2023-08-06T14:21:31;2.40;;;1.40;;
52438;SDS011;38359;53.150;6.504;2023-08-06T14:31:56;3.22;;;1.77;;
52438;SDS011;38359;53.150;6.504;2023-08-06T14:42:22;3.20;;;1.40;;
52438;SDS011;38359;53.150;6.504;2023-08-06T14:52:48;2.40;;;1.50;;
52438;SDS011;38359;53.150;6.504;2023-08-06T15:03:14;2.40;;;1.52;;
52438;SDS011;38359;53.150;6.504;2023-08-06T15:13:53;2.13;;;1.08;;
52438;SDS011;38359;53.150;6.504;2023-08-06T15:24:20;1.60;;;1.00;;
52438;SDS011;38359;53.150;6.504;2023-08-06T15:34:46;2.08;;;1.30;;
52438;SDS011;38359;53.150;6.504;2023-08-06T15:45:12;2.05;;;1.17;;
52438;SDS011;38359;53.150;6.504;2023-08-06T15:55:38;2.40;;;1.20;;
52438;SDS011;38359;53.150;6.504;2023-08-06T16:06:04;3.25;;;1.35;;
52438;SDS011;38359;53.150;6.504;2023-08-06T16:16:36;3.20;;;1.50;;
52438;SDS011;38359;53.150;6.504;2023-08-06T16:27:02;5.05;;;1.60;;
52438;SDS011;38359;53.150;6.504;2023-08-06T16:37:29;3.75;;;1.58;;
52438;SDS011;38359;53.150;6.504;2023-08-06T16:47:55;3.38;;;1.40;;
52438;SDS011;38359;53.150;6.504;2023-08-06T16:58:21;2.92;;;1.40;;
52438;SDS011;38359;53.150;6.504;2023-08-06T17:08:47;3.00;;;1.52;;
52438;SDS011;38359;53.150;6.504;2023-08-06T17:19:19;3.90;;;1.60;;
52438;SDS011;38359;53.150;6.504;2023-08-06T17:29:45;3.13;;;1.35;;
52438;SDS011;38359;53.150;6.504;2023-08-06T17:40:12;2.67;;;1.60;;
52438;SDS011;38359;53.150;6.504;2023-08-06T17:50:38;2.92;;;1.95;;
52438;SDS011;38359;53.150;6.504;2023-08-06T18:01:04;4.45;;;2.40;;
52438;SDS011;38359;53.150;6.504;2023-08-06T18:11:36;3.10;;;1.98;;
52438;SDS011;38359;53.150;6.504;2023-08-06T18:32:28;7.25;;;2.80;;
52438;SDS011;38359;53.150;6.504;2023-08-06T18:42:54;3.55;;;2.10;;
52438;SDS011;38359;53.150;6.504;2023-08-06T18:53:20;5.45;;;2.20;;
52438;SDS011;38359;53.150;6.504;2023-08-06T19:03:45;3.30;;;2.03;;
52438;SDS011;38359;53.150;6.504;2023-08-06T19:14:31;6.60;;;2.90;;
52438;SDS011;38359;53.150;6.504;2023-08-06T19:24:57;6.30;;;2.53;;
52438;SDS011;38359;53.150;6.504;2023-08-06T19:35:23;4.13;;;2.42;;
52438;SDS011;38359;53.150;6.504;2023-08-06T19:45:49;5.20;;;2.53;;
52438;SDS011;38359;53.150;6.504;2023-08-06T19:56:15;3.72;;;2.70;;
52438;SDS011;38359;53.150;6.504;2023-08-06T20:06:41;4.40;;;2.67;;
52438;SDS011;38359;53.150;6.504;2023-08-06T20:17:14;6.90;;;3.67;;
52438;SDS011;38359;53.150;6.504;2023-08-06T20:27:40;6.15;;;4.05;;
52438;SDS011;38359;53.150;6.504;2023-08-06T20:38:06;6.13;;;4.03;;
52438;SDS011;38359;53.150;6.504;2023-08-06T20:48:32;10.18;;;4.65;;
52438;SDS011;38359;53.150;6.504;2023-08-06T20:58:58;8.43;;;4.50;;
52438;SDS011;38359;53.150;6.504;2023-08-06T21:09:24;7.97;;;5.28;;
52438;SDS011;38359;53.150;6.504;2023-08-06T21:19:57;9.67;;;5.97;;
52438;SDS011;38359;53.150;6.504;2023-08-06T21:30:23;12.23;;;6.13;;
52438;SDS011;38359;53.150;6.504;2023-08-06T21:40:48;11.65;;;5.95;;
52438;SDS011;38359;53.150;6.504;2023-08-06T21:51:15;8.77;;;5.63;;
52438;SDS011;38359;53.150;6.504;2023-08-06T22:01:42;8.82;;;5.18;;
52438;SDS011;38359;53.150;6.504;2023-08-06T22:12:15;8.93;;;5.38;;
52438;SDS011;38359;53.150;6.504;2023-08-06T22:22:41;10.13;;;5.18;;
52438;SDS011;38359;53.150;6.504;2023-08-06T22:33:06;7.03;;;5.20;;
52438;SDS011;38359;53.150;6.504;2023-08-06T22:43:32;10.07;;;4.88;;
52438;SDS011;38359;53.150;6.504;2023-08-06T22:54:00;13.45;;;4.97;;
52438;SDS011;38359;53.150;6.504;2023-08-06T23:04:25;9.75;;;4.13;;
52438;SDS011;38359;53.150;6.504;2023-08-06T23:15:12;8.80;;;4.32;;
52438;SDS011;38359;53.150;6.504;2023-08-06T23:25:38;8.23;;;3.78;;
52438;SDS011;38359;53.150;6.504;2023-08-06T23:36:04;12.82;;;3.40;;
52438;SDS011;38359;53.150;6.504;2023-08-06T23:46:36;7.22;;;3.15;;
52438;SDS011;38359;53.150;6.504;2023-08-06T23:57:08;7.13;;;4.07;;
